sensor_id;sensor_type;location;lat;lon;timestamp;pressure;altitude;pressure_sealevel;temperature;humidity
48027;BME280;50714;49.208;5.364;2023-01-31T00:04:22;100602.56;;;0.97;95.93
48027;BME280;50714;49.208;5.364;2023-01-31T00:14:22;100597.34;;;0.95;96.59
48027;BME280;50714;49.208;5.364;2023-01-31T00:24:24;100606.53;;;0.91;99.28
48027;BME280;50714;49.208;5.364;2023-01-31T00:34:24;100603.28;;;0.99;100.00
48027;BME280;50714;49.208;5.364;2023-01-31T00:44:24;100609.00;;;1.06;100.00
48027;BME280;50714;49.208;5.364;2023-01-31T00:54:25;100596.97;;;1.24;100.00
48027;BME280;50714;49.208;5.364;2023-01-31T01:04:25;100605.38;;;1.42;100.00
48027;BME280;50714;49.208;5.364;2023-01-31T01:14:25;100589.53;;;1.51;100.00
48027;BME280;50714;49.208;5.364;2023-01-31T01:24:26;100598.00;;;1.56;100.00
48027;BME280;50714;49.208;5.364;2023-01-31T01:34:28;100593.53;;;1.57;99.23
48027;BME280;50714;49.208;5.364;2023-01-31T01:44:48;100595.22;;;1.58;98.90
48027;BME280;50714;49.208;5.364;2023-01-31T01:54:57;100594.16;;;1.60;98.54
48027;BME280;50714;49.208;5.364;2023-01-31T02:04:58;100585.81;;;1.65;98.15
48027;BME280;50714;49.208;5.364;2023-01-31T02:14:59;100597.00;;;1.46;97.18
48027;BME280;50714;49.208;5.364;2023-01-31T02:45:30;100601.84;;;1.41;99.71
48027;BME280;50714;49.208;5.364;2023-01-31T02:55:44;100608.03;;;1.42;99.21
48027;BME280;50714;49.208;5.364;2023-01-31T03:16:26;100612.13;;;1.46;98.62
48027;BME280;50714;49.208;5.364;2023-01-31T03:26:46;100575.84;;;1.45;97.71
48027;BME280;50714;49.208;5.364;2023-01-31T03:46:59;100562.66;;;1.43;95.81
48027;BME280;50714;49.208;5.364;2023-01-31T04:07:10;100585.91;;;1.41;95.32
48027;BME280;50714;49.208;5.364;2023-01-31T04:17:10;100587.44;;;1.44;94.92
48027;BME280;50714;49.208;5.364;2023-01-31T04:27:11;100589.22;;;1.21;95.04
48027;BME280;50714;49.208;5.364;2023-01-31T04:37:11;100584.00;;;1.08;97.87
48027;BME280;50714;49.208;5.364;2023-01-31T04:47:11;100585.41;;;1.01;98.14
48027;BME280;50714;49.208;5.364;2023-01-31T04:57:12;100580.31;;;0.98;99.55
48027;BME280;50714;49.208;5.364;2023-01-31T05:07:12;100584.97;;;1.07;100.00
48027;BME280;50714;49.208;5.364;2023-01-31T05:17:12;100580.09;;;1.36;100.00
48027;BME280;50714;49.208;5.364;2023-01-31T05:27:13;100553.13;;;1.52;100.00
48027;BME280;50714;49.208;5.364;2023-01-31T05:37:13;100560.53;;;1.59;100.00
48027;BME280;50714;49.208;5.364;2023-01-31T05:47:13;100561.13;;;1.74;100.00
48027;BME280;50714;49.208;5.364;2023-01-31T05:57:14;100550.50;;;1.85;100.00
48027;BME280;50714;49.208;5.364;2023-01-31T06:07:14;100545.38;;;1.93;99.72
48027;BME280;50714;49.208;5.364;2023-01-31T06:17:15;100541.63;;;1.96;99.42
48027;BME280;50714;49.208;5.364;2023-01-31T06:27:16;100565.34;;;1.99;98.78
48027;BME280;50714;49.208;5.364;2023-01-31T06:37:17;100573.69;;;2.05;98.98
48027;BME280;50714;49.208;5.364;2023-01-31T06:47:17;100580.09;;;1.92;98.38
48027;BME280;50714;49.208;5.364;2023-01-31T06:57:18;100560.16;;;1.86;99.63
48027;BME280;50714;49.208;5.364;2023-01-31T07:07:19;100560.16;;;1.86;100.00
48027;BME280;50714;49.208;5.364;2023-01-31T07:17:19;100566.06;;;1.90;100.00
48027;BME280;50714;49.208;5.364;2023-01-31T07:27:22;100564.63;;;1.97;100.00
48027;BME280;50714;49.208;5.364;2023-01-31T07:37:23;100569.22;;;2.06;100.00
48027;BME280;50714;49.208;5.364;2023-01-31T07:47:24;100582.13;;;2.33;100.00
48027;BME280;50714;49.208;5.364;2023-01-31T07:57:24;100594.03;;;2.61;100.00
48027;BME280;50714;49.208;5.364;2023-01-31T08:07:25;100560.31;;;2.82;100.00
48027;BME280;50714;49.208;5.364;2023-01-31T08:17:26;100591.47;;;3.02;100.00
48027;BME280;50714;49.208;5.364;2023-01-31T08:27:26;100598.44;;;3.15;100.00
48027;BME280;50714;49.208;5.364;2023-01-31T08:37:26;100591.41;;;3.34;100.00
48027;BME280;50714;49.208;5.364;2023-01-31T08:47:27;100585.31;;;3.43;100.00
48027;BME280;50714;49.208;5.364;2023-01-31T08:57:28;100600.78;;;3.50;100.00
48027;BME280;50714;49.208;5.364;2023-01-31T09:07:28;100613.66;;;3.65;100.00
48027;BME280;50714;49.208;5.364;2023-01-31T09:17:29;100600.94;;;3.78;100.00
48027;BME280;50714;49.208;5.364;2023-01-31T09:27:29;100602.56;;;3.91;100.00
48027;BME280;50714;49.208;5.364;2023-01-31T09:37:30;100600.50;;;4.44;100.00
48027;BME280;50714;49.208;5.364;2023-01-31T09:47:35;100609.09;;;4.57;98.36
48027;BME280;50714;49.208;5.364;2023-01-31T10:18:21;100561.81;;;5.25;95.45
48027;BME280;50714;49.208;5.364;2023-01-31T10:38:36;100570.53;;;5.27;95.18
48027;BME280;50714;49.208;5.364;2023-01-31T10:48:42;100549.81;;;5.39;95.89
48027;BME280;50714;49.208;5.364;2023-01-31T10:58:45;100534.69;;;5.57;94.89
48027;BME280;50714;49.208;5.364;2023-01-31T11:08:53;100541.97;;;5.74;94.16
48027;BME280;50714;49.208;5.364;2023-01-31T11:18:56;100516.00;;;5.75;94.21
48027;BME280;50714;49.208;5.364;2023-01-31T11:28:58;100510.66;;;5.75;93.86
48027;BME280;50714;49.208;5.364;2023-01-31T11:39:22;100500.06;;;5.83;93.88
48027;BME280;50714;49.208;5.364;2023-01-31T11:59:28;100498.34;;;5.92;93.54
48027;BME280;50714;49.208;5.364;2023-01-31T12:09:40;100487.94;;;5.89;92.41
48027;BME280;50714;49.208;5.364;2023-01-31T12:20:11;100458.75;;;5.86;92.90
48027;BME280;50714;49.208;5.364;2023-01-31T13:01:38;100409.00;;;6.98;90.99
48027;BME280;50714;49.208;5.364;2023-01-31T13:11:51;100398.38;;;6.88;88.39
48027;BME280;50714;49.208;5.364;2023-01-31T13:21:57;100391.25;;;6.53;88.93
48027;BME280;50714;49.208;5.364;2023-01-31T13:42:00;100363.41;;;6.10;90.59
48027;BME280;50714;49.208;5.364;2023-01-31T13:52:05;100357.38;;;6.08;91.00
48027;BME280;50714;49.208;5.364;2023-01-31T14:02:17;100335.28;;;6.14;91.35
48027;BME280;50714;49.208;5.364;2023-01-31T15:03:56;100389.84;;;5.78;96.96
48027;BME280;50714;49.208;5.364;2023-01-31T15:34:39;100422.34;;;5.65;97.80
48027;BME280;50714;49.208;5.364;2023-01-31T15:44:41;100427.16;;;5.62;97.48
48027;BME280;50714;49.208;5.364;2023-01-31T15:54:56;100426.47;;;5.60;97.77
48027;BME280;50714;49.208;5.364;2023-01-31T16:04:56;100441.56;;;5.51;97.57
48027;BME280;50714;49.208;5.364;2023-01-31T16:15:02;100416.47;;;5.52;97.83
48027;BME280;50714;49.208;5.364;2023-01-31T16:25:03;100422.69;;;5.53;97.60
48027;BME280;50714;49.208;5.364;2023-01-31T16:35:06;100424.66;;;5.51;98.16
48027;BME280;50714;49.208;5.364;2023-01-31T16:45:31;100407.59;;;5.52;98.24
48027;BME280;50714;49.208;5.364;2023-01-31T16:55:32;100400.72;;;5.49;97.92
48027;BME280;50714;49.208;5.364;2023-01-31T17:05:40;100396.59;;;5.55;98.32
48027;BME280;50714;49.208;5.364;2023-01-31T17:15:42;100411.13;;;5.52;98.72
48027;BME280;50714;49.208;5.364;2023-01-31T17:25:42;100408.88;;;5.47;99.08
48027;BME280;50714;49.208;5.364;2023-01-31T17:35:46;100406.06;;;5.49;99.93
48027;BME280;50714;49.208;5.364;2023-01-31T17:45:46;100412.25;;;5.49;100.00
48027;BME280;50714;49.208;5.364;2023-01-31T17:55:46;100403.25;;;5.51;100.00
48027;BME280;50714;49.208;5.364;2023-01-31T18:05:47;100415.94;;;5.48;100.00
48027;BME280;50714;49.208;5.364;2023-01-31T18:15:47;100405.22;;;5.48;100.00
48027;BME280;50714;49.208;5.364;2023-01-31T18:25:48;100417.47;;;5.51;100.00
48027;BME280;50714;49.208;5.364;2023-01-31T18:35:56;100415.78;;;5.50;100.00
48027;BME280;50714;49.208;5.364;2023-01-31T18:45:57;100410.44;;;5.50;100.00
48027;BME280;50714;49.208;5.364;2023-01-31T18:55:59;100410.44;;;5.50;100.00
48027;BME280;50714;49.208;5.364;2023-01-31T19:06:11;100404.63;;;5.55;100.00
48027;BME280;50714;49.208;5.364;2023-01-31T19:16:21;100389.41;;;5.55;100.00
48027;BME280;50714;49.208;5.364;2023-01-31T19:26:22;100391.09;;;5.56;100.00
48027;BME280;50714;49.208;5.364;2023-01-31T19:36:25;100379.00;;;5.52;100.00
48027;BME280;50714;49.208;5.364;2023-01-31T19:46:28;100365.47;;;5.54;100.00
48027;BME280;50714;49.208;5.364;2023-01-31T19:56:30;100378.56;;;5.57;100.00
48027;BME280;50714;49.208;5.364;2023-01-31T20:06:33;100376.72;;;5.57;100.00
48027;BME280;50714;49.208;5.364;2023-01-31T20:16:34;100377.41;;;5.59;100.00
48027;BME280;50714;49.208;5.364;2023-01-31T20:26:34;100390.81;;;5.59;100.00
48027;BME280;50714;49.208;5.364;2023-01-31T20:36:34;100384.31;;;5.62;100.00
48027;BME280;50714;49.208;5.364;2023-01-31T20:46:35;100377.97;;;5.63;99.93
48027;BME280;50714;49.208;5.364;2023-01-31T20:56:35;100375.13;;;5.64;100.00
48027;BME280;50714;49.208;5.364;2023-01-31T21:06:35;100373.44;;;5.63;100.00
48027;BME280;50714;49.208;5.364;2023-01-31T21:16:36;100387.00;;;5.62;100.00
48027;BME280;50714;49.208;5.364;2023-01-31T21:26:36;100409.81;;;5.66;100.00
48027;BME280;50714;49.208;5.364;2023-01-31T21:36:37;100399.75;;;5.68;100.00
48027;BME280;50714;49.208;5.364;2023-01-31T21:46:37;100385.38;;;5.69;100.00
48027;BME280;50714;49.208;5.364;2023-01-31T21:56:37;100376.50;;;5.68;99.81
48027;BME280;50714;49.208;5.364;2023-01-31T22:06:39;100367.63;;;5.68;99.88
48027;BME280;50714;49.208;5.364;2023-01-31T22:16:40;100358.44;;;5.70;100.00
48027;BME280;50714;49.208;5.364;2023-01-31T22:26:42;100349.41;;;5.71;99.71
48027;BME280;50714;49.208;5.364;2023-01-31T22:36:43;100338.56;;;5.73;99.78
48027;BME280;50714;49.208;5.364;2023-01-31T22:46:43;100328.13;;;5.70;99.43
48027;BME280;50714;49.208;5.364;2023-01-31T22:56:43;100318.28;;;5.70;99.47
48027;BME280;50714;49.208;5.364;2023-01-31T23:06:44;100290.19;;;5.74;99.66
48027;BME280;50714;49.208;5.364;2023-01-31T23:16:44;100290.81;;;5.68;99.50
48027;BME280;50714;49.208;5.364;2023-01-31T23:27:03;100298.22;;;5.74;99.92
48027;BME280;50714;49.208;5.364;2023-01-31T23:37:04;100281.16;;;5.75;99.70
48027;BME280;50714;49.208;5.364;2023-01-31T23:47:04;100266.47;;;5.79;99.40
48027;BME280;50714;49.208;5.364;2023-01-31T23:57:04;100257.44;;;5.80;99.30
